sensor_id;sensor_type;location;lat;lon;timestamp;P1;durP1;ratioP1;P2;durP2;ratioP2
28447;SDS011;15675;52.870;-1.416;2022-11-15T00:00:53;7.90;;;3.63;;
28447;SDS011;15675;52.870;-1.416;2022-11-15T00:03:20;9.90;;;3.63;;
28447;SDS011;15675;52.870;-1.416;2022-11-15T00:05:48;6.43;;;3.60;;
28447;SDS011;15675;52.870;-1.416;2022-11-15T00:08:14;11.27;;;3.83;;
28447;SDS011;15675;52.870;-1.416;2022-11-15T00:10:40;8.23;;;3.50;;
28447;SDS011;15675;52.870;-1.416;2022-11-15T00:13:06;7.85;;;2.90;;
28447;SDS011;15675;52.870;-1.416;2022-11-15T00:15:34;7.97;;;3.30;;
28447;SDS011;15675;52.870;-1.416;2022-11-15T00:18:03;7.63;;;3.45;;
28447;SDS011;15675;52.870;-1.416;2022-11-15T00:20:30;9.60;;;3.20;;
28447;SDS011;15675;52.870;-1.416;2022-11-15T00:22:56;9.00;;;3.45;;
28447;SDS011;15675;52.870;-1.416;2022-11-15T00:25:22;10.25;;;3.58;;
28447;SDS011;15675;52.870;-1.416;2022-11-15T00:27:47;13.43;;;3.00;;
28447;SDS011;15675;52.870;-1.416;2022-11-15T00:30:13;9.82;;;2.60;;
28447;SDS011;15675;52.870;-1.416;2022-11-15T00:32:39;7.00;;;2.22;;
28447;SDS011;15675;52.870;-1.416;2022-11-15T00:35:05;13.32;;;3.63;;
28447;SDS011;15675;52.870;-1.416;2022-11-15T00:37:30;7.38;;;2.92;;
28447;SDS011;15675;52.870;-1.416;2022-11-15T00:39:56;10.60;;;2.95;;
28447;SDS011;15675;52.870;-1.416;2022-11-15T00:42:22;8.30;;;2.17;;
28447;SDS011;15675;52.870;-1.416;2022-11-15T00:44:48;7.28;;;2.30;;
28447;SDS011;15675;52.870;-1.416;2022-11-15T00:47:14;10.07;;;2.50;;
28447;SDS011;15675;52.870;-1.416;2022-11-15T00:49:39;5.40;;;1.80;;
28447;SDS011;15675;52.870;-1.416;2022-11-15T00:52:06;4.75;;;1.60;;
28447;SDS011;15675;52.870;-1.416;2022-11-15T00:54:31;7.85;;;1.83;;
28447;SDS011;15675;52.870;-1.416;2022-11-15T00:56:57;9.38;;;2.50;;
28447;SDS011;15675;52.870;-1.416;2022-11-15T00:59:23;6.57;;;1.70;;
28447;SDS011;15675;52.870;-1.416;2022-11-15T01:01:49;6.30;;;2.03;;
28447;SDS011;15675;52.870;-1.416;2022-11-15T01:04:14;7.03;;;1.70;;
28447;SDS011;15675;52.870;-1.416;2022-11-15T01:06:40;7.88;;;2.17;;
28447;SDS011;15675;52.870;-1.416;2022-11-15T01:09:06;8.55;;;2.38;;
28447;SDS011;15675;52.870;-1.416;2022-11-15T01:11:31;13.60;;;2.22;;
28447;SDS011;15675;52.870;-1.416;2022-11-15T01:13:57;9.43;;;1.88;;
28447;SDS011;15675;52.870;-1.416;2022-11-15T01:16:23;8.57;;;2.10;;
28447;SDS011;15675;52.870;-1.416;2022-11-15T01:18:48;8.30;;;1.98;;
28447;SDS011;15675;52.870;-1.416;2022-11-15T01:21:16;8.23;;;1.92;;
28447;SDS011;15675;52.870;-1.416;2022-11-15T01:23:44;6.38;;;1.85;;
28447;SDS011;15675;52.870;-1.416;2022-11-15T01:26:11;7.55;;;1.90;;
28447;SDS011;15675;52.870;-1.416;2022-11-15T01:28:39;7.95;;;1.58;;
28447;SDS011;15675;52.870;-1.416;2022-11-15T01:31:09;7.65;;;1.63;;
28447;SDS011;15675;52.870;-1.416;2022-11-15T01:33:38;7.38;;;1.35;;
28447;SDS011;15675;52.870;-1.416;2022-11-15T01:36:04;8.57;;;2.00;;
28447;SDS011;15675;52.870;-1.416;2022-11-15T01:38:31;6.07;;;1.50;;
28447;SDS011;15675;52.870;-1.416;2022-11-15T01:40:57;6.22;;;1.95;;
28447;SDS011;15675;52.870;-1.416;2022-11-15T01:45:58;11.95;;;1.77;;
28447;SDS011;15675;52.870;-1.416;2022-11-15T01:48:32;9.60;;;1.92;;
28447;SDS011;15675;52.870;-1.416;2022-11-15T01:51:00;8.48;;;1.88;;
28447;SDS011;15675;52.870;-1.416;2022-11-15T01:53:29;9.60;;;2.17;;
28447;SDS011;15675;52.870;-1.416;2022-11-15T01:55:57;8.23;;;1.50;;
28447;SDS011;15675;52.870;-1.416;2022-11-15T01:58:27;12.10;;;1.70;;
28447;SDS011;15675;52.870;-1.416;2022-11-15T02:00:52;18.83;;;2.00;;
28447;SDS011;15675;52.870;-1.416;2022-11-15T02:03:18;10.60;;;1.85;;
28447;SDS011;15675;52.870;-1.416;2022-11-15T02:05:47;5.53;;;1.80;;
28447;SDS011;15675;52.870;-1.416;2022-11-15T02:08:14;14.40;;;1.98;;
28447;SDS011;15675;52.870;-1.416;2022-11-15T02:10:46;5.30;;;1.80;;
28447;SDS011;15675;52.870;-1.416;2022-11-15T02:13:13;12.13;;;1.90;;
28447;SDS011;15675;52.870;-1.416;2022-11-15T02:18:33;10.52;;;1.92;;
28447;SDS011;15675;52.870;-1.416;2022-11-15T02:21:06;9.23;;;1.77;;
28447;SDS011;15675;52.870;-1.416;2022-11-15T02:24:03;9.05;;;1.85;;
28447;SDS011;15675;52.870;-1.416;2022-11-15T02:32:54;10.50;;;2.13;;
28447;SDS011;15675;52.870;-1.416;2022-11-15T02:41:16;8.15;;;1.80;;
28447;SDS011;15675;52.870;-1.416;2022-11-15T02:43:54;12.60;;;1.23;;
28447;SDS011;15675;52.870;-1.416;2022-11-15T02:49:33;6.80;;;1.67;;
28447;SDS011;15675;52.870;-1.416;2022-11-15T02:52:00;6.00;;;1.20;;
28447;SDS011;15675;52.870;-1.416;2022-11-15T02:54:30;13.40;;;2.03;;
28447;SDS011;15675;52.870;-1.416;2022-11-15T02:57:02;13.50;;;1.50;;
28447;SDS011;15675;52.870;-1.416;2022-11-15T03:04:56;6.10;;;1.13;;
28447;SDS011;15675;52.870;-1.416;2022-11-15T03:10:00;9.43;;;2.80;;
28447;SDS011;15675;52.870;-1.416;2022-11-15T03:12:30;9.68;;;1.58;;
28447;SDS011;15675;52.870;-1.416;2022-11-15T03:15:11;7.70;;;1.65;;
28447;SDS011;15675;52.870;-1.416;2022-11-15T03:17:48;10.45;;;1.55;;
28447;SDS011;15675;52.870;-1.416;2022-11-15T03:20:18;12.52;;;2.22;;
28447;SDS011;15675;52.870;-1.416;2022-11-15T03:22:45;10.65;;;1.73;;
28447;SDS011;15675;52.870;-1.416;2022-11-15T03:25:15;11.15;;;1.77;;
28447;SDS011;15675;52.870;-1.416;2022-11-15T03:27:46;9.82;;;1.30;;
28447;SDS011;15675;52.870;-1.416;2022-11-15T03:30:16;4.68;;;1.38;;
28447;SDS011;15675;52.870;-1.416;2022-11-15T03:32:47;20.45;;;2.20;;
28447;SDS011;15675;52.870;-1.416;2022-11-15T03:35:20;19.15;;;1.95;;
28447;SDS011;15675;52.870;-1.416;2022-11-15T03:40:16;9.63;;;1.55;;
28447;SDS011;15675;52.870;-1.416;2022-11-15T03:45:31;8.75;;;1.85;;
28447;SDS011;15675;52.870;-1.416;2022-11-15T03:48:02;11.07;;;1.35;;
28447;SDS011;15675;52.870;-1.416;2022-11-15T03:50:34;8.52;;;1.60;;
28447;SDS011;15675;52.870;-1.416;2022-11-15T03:53:00;13.27;;;1.88;;
28447;SDS011;15675;52.870;-1.416;2022-11-15T03:55:27;11.23;;;2.08;;
28447;SDS011;15675;52.870;-1.416;2022-11-15T03:57:53;9.93;;;1.55;;
28447;SDS011;15675;52.870;-1.416;2022-11-15T04:00:23;10.00;;;1.67;;
28447;SDS011;15675;52.870;-1.416;2022-11-15T04:02:49;10.75;;;1.40;;
28447;SDS011;15675;52.870;-1.416;2022-11-15T04:05:15;8.77;;;1.52;;
28447;SDS011;15675;52.870;-1.416;2022-11-15T04:07:41;11.13;;;1.65;;
28447;SDS011;15675;52.870;-1.416;2022-11-15T04:10:07;12.32;;;1.73;;
28447;SDS011;15675;52.870;-1.416;2022-11-15T04:12:36;16.50;;;2.20;;
28447;SDS011;15675;52.870;-1.416;2022-11-15T04:15:08;6.97;;;1.52;;
28447;SDS011;15675;52.870;-1.416;2022-11-15T04:17:37;10.30;;;1.35;;
28447;SDS011;15675;52.870;-1.416;2022-11-15T04:20:07;12.48;;;2.08;;
28447;SDS011;15675;52.870;-1.416;2022-11-15T04:22:55;10.10;;;1.67;;
28447;SDS011;15675;52.870;-1.416;2022-11-15T04:25:42;12.75;;;2.13;;
28447;SDS011;15675;52.870;-1.416;2022-11-15T04:28:09;12.30;;;1.63;;
28447;SDS011;15675;52.870;-1.416;2022-11-15T04:30:35;14.38;;;1.75;;
28447;SDS011;15675;52.870;-1.416;2022-11-15T04:33:02;20.83;;;1.98;;
28447;SDS011;15675;52.870;-1.416;2022-11-15T04:35:28;7.55;;;1.55;;
28447;SDS011;15675;52.870;-1.416;2022-11-15T04:38:01;12.98;;;1.88;;
28447;SDS011;15675;52.870;-1.416;2022-11-15T04:40:28;14.95;;;2.20;;
28447;SDS011;15675;52.870;-1.416;2022-11-15T04:42:54;12.20;;;2.22;;
28447;SDS011;15675;52.870;-1.416;2022-11-15T04:45:20;14.98;;;1.73;;
28447;SDS011;15675;52.870;-1.416;2022-11-15T04:47:46;11.55;;;1.50;;
28447;SDS011;15675;52.870;-1.416;2022-11-15T04:50:13;15.40;;;2.00;;
28447;SDS011;15675;52.870;-1.416;2022-11-15T04:52:40;18.60;;;2.75;;
28447;SDS011;15675;52.870;-1.416;2022-11-15T04:55:09;17.30;;;1.90;;
28447;SDS011;15675;52.870;-1.416;2022-11-15T04:57:36;12.60;;;2.40;;
28447;SDS011;15675;52.870;-1.416;2022-11-15T05:00:03;15.70;;;2.28;;
28447;SDS011;15675;52.870;-1.416;2022-11-15T05:02:29;13.20;;;1.98;;
28447;SDS011;15675;52.870;-1.416;2022-11-15T05:05:15;14.70;;;2.20;;
28447;SDS011;15675;52.870;-1.416;2022-11-15T05:07:41;11.15;;;1.55;;
28447;SDS011;15675;52.870;-1.416;2022-11-15T05:10:06;13.80;;;1.85;;
28447;SDS011;15675;52.870;-1.416;2022-11-15T05:12:32;10.88;;;2.42;;
28447;SDS011;15675;52.870;-1.416;2022-11-15T05:14:58;9.98;;;1.50;;
28447;SDS011;15675;52.870;-1.416;2022-11-15T05:17:24;11.25;;;2.55;;
28447;SDS011;15675;52.870;-1.416;2022-11-15T05:19:49;14.65;;;2.08;;
28447;SDS011;15675;52.870;-1.416;2022-11-15T05:22:17;12.10;;;2.30;;
28447;SDS011;15675;52.870;-1.416;2022-11-15T05:24:43;10.57;;;2.05;;
28447;SDS011;15675;52.870;-1.416;2022-11-15T05:27:09;11.25;;;2.08;;
28447;SDS011;15675;52.870;-1.416;2022-11-15T05:29:34;13.73;;;2.20;;
28447;SDS011;15675;52.870;-1.416;2022-11-15T05:32:00;16.40;;;2.35;;
28447;SDS011;15675;52.870;-1.416;2022-11-15T05:34:26;12.73;;;2.28;;
28447;SDS011;15675;52.870;-1.416;2022-11-15T05:36:52;14.75;;;2.83;;
28447;SDS011;15675;52.870;-1.416;2022-11-15T05:39:18;11.77;;;2.38;;
28447;SDS011;15675;52.870;-1.416;2022-11-15T05:41:45;13.77;;;2.40;;
28447;SDS011;15675;52.870;-1.416;2022-11-15T05:44:15;12.20;;;2.45;;
28447;SDS011;15675;52.870;-1.416;2022-11-15T05:46:44;12.70;;;2.30;;
28447;SDS011;15675;52.870;-1.416;2022-11-15T05:49:12;15.95;;;2.45;;
28447;SDS011;15675;52.870;-1.416;2022-11-15T05:51:40;11.25;;;2.10;;
28447;SDS011;15675;52.870;-1.416;2022-11-15T05:54:08;12.32;;;2.08;;
28447;SDS011;15675;52.870;-1.416;2022-11-15T05:56:35;10.05;;;2.38;;
28447;SDS011;15675;52.870;-1.416;2022-11-15T05:59:01;17.55;;;2.40;;
28447;SDS011;15675;52.870;-1.416;2022-11-15T06:01:27;11.02;;;2.33;;
28447;SDS011;15675;52.870;-1.416;2022-11-15T06:03:53;12.27;;;2.55;;
28447;SDS011;15675;52.870;-1.416;2022-11-15T06:06:19;14.75;;;2.53;;
28447;SDS011;15675;52.870;-1.416;2022-11-15T06:08:45;9.23;;;2.15;;
28447;SDS011;15675;52.870;-1.416;2022-11-15T06:11:10;10.98;;;2.70;;
28447;SDS011;15675;52.870;-1.416;2022-11-15T06:13:36;13.23;;;2.42;;
28447;SDS011;15675;52.870;-1.416;2022-11-15T06:16:02;12.65;;;2.22;;
28447;SDS011;15675;52.870;-1.416;2022-11-15T06:18:28;8.27;;;2.38;;
28447;SDS011;15675;52.870;-1.416;2022-11-15T06:20:59;14.13;;;2.78;;
28447;SDS011;15675;52.870;-1.416;2022-11-15T06:23:25;10.75;;;2.20;;
28447;SDS011;15675;52.870;-1.416;2022-11-15T06:25:51;8.32;;;2.35;;
28447;SDS011;15675;52.870;-1.416;2022-11-15T06:28:17;8.30;;;2.80;;
28447;SDS011;15675;52.870;-1.416;2022-11-15T06:30:42;9.13;;;2.50;;
28447;SDS011;15675;52.870;-1.416;2022-11-15T06:33:08;9.82;;;2.65;;
28447;SDS011;15675;52.870;-1.416;2022-11-15T06:35:34;10.30;;;2.35;;
28447;SDS011;15675;52.870;-1.416;2022-11-15T06:38:03;8.52;;;1.95;;
28447;SDS011;15675;52.870;-1.416;2022-11-15T06:40:32;8.00;;;1.95;;
28447;SDS011;15675;52.870;-1.416;2022-11-15T06:42:59;7.68;;;1.90;;
28447;SDS011;15675;52.870;-1.416;2022-11-15T06:45:25;9.70;;;1.60;;
28447;SDS011;15675;52.870;-1.416;2022-11-15T06:47:51;8.13;;;1.90;;
28447;SDS011;15675;52.870;-1.416;2022-11-15T06:50:17;7.82;;;2.05;;
28447;SDS011;15675;52.870;-1.416;2022-11-15T06:52:43;6.88;;;1.67;;
28447;SDS011;15675;52.870;-1.416;2022-11-15T06:55:09;10.63;;;2.00;;
28447;SDS011;15675;52.870;-1.416;2022-11-15T06:57:35;8.10;;;2.13;;
28447;SDS011;15675;52.870;-1.416;2022-11-15T07:00:03;9.32;;;1.98;;
28447;SDS011;15675;52.870;-1.416;2022-11-15T07:02:30;7.90;;;1.80;;
28447;SDS011;15675;52.870;-1.416;2022-11-15T07:04:56;10.18;;;2.33;;
28447;SDS011;15675;52.870;-1.416;2022-11-15T07:07:21;10.60;;;2.45;;
28447;SDS011;15675;52.870;-1.416;2022-11-15T07:09:47;7.60;;;2.38;;
28447;SDS011;15675;52.870;-1.416;2022-11-15T07:12:13;5.72;;;2.22;;
28447;SDS011;15675;52.870;-1.416;2022-11-15T07:14:39;9.77;;;2.25;;
28447;SDS011;15675;52.870;-1.416;2022-11-15T07:17:04;8.85;;;2.25;;
28447;SDS011;15675;52.870;-1.416;2022-11-15T07:19:30;11.38;;;2.40;;
28447;SDS011;15675;52.870;-1.416;2022-11-15T07:21:57;6.57;;;2.53;;
28447;SDS011;15675;52.870;-1.416;2022-11-15T07:24:22;6.13;;;2.15;;
28447;SDS011;15675;52.870;-1.416;2022-11-15T07:26:48;10.63;;;2.45;;
28447;SDS011;15675;52.870;-1.416;2022-11-15T07:29:14;8.18;;;2.60;;
28447;SDS011;15675;52.870;-1.416;2022-11-15T07:31:40;12.23;;;2.13;;
28447;SDS011;15675;52.870;-1.416;2022-11-15T07:34:05;10.40;;;2.45;;
28447;SDS011;15675;52.870;-1.416;2022-11-15T07:36:31;10.48;;;2.45;;
28447;SDS011;15675;52.870;-1.416;2022-11-15T07:38:57;8.95;;;2.30;;
28447;SDS011;15675;52.870;-1.416;2022-11-15T07:41:23;12.32;;;2.47;;
28447;SDS011;15675;52.870;-1.416;2022-11-15T07:43:51;4.57;;;1.95;;
28447;SDS011;15675;52.870;-1.416;2022-11-15T07:46:17;8.65;;;1.85;;
28447;SDS011;15675;52.870;-1.416;2022-11-15T07:48:43;8.00;;;1.88;;
28447;SDS011;15675;52.870;-1.416;2022-11-15T07:51:11;7.75;;;2.08;;
28447;SDS011;15675;52.870;-1.416;2022-11-15T07:53:39;9.65;;;2.25;;
28447;SDS011;15675;52.870;-1.416;2022-11-15T07:56:06;7.60;;;2.25;;
28447;SDS011;15675;52.870;-1.416;2022-11-15T07:58:32;14.32;;;2.97;;
28447;SDS011;15675;52.870;-1.416;2022-11-15T08:01:02;7.32;;;2.00;;
28447;SDS011;15675;52.870;-1.416;2022-11-15T08:03:31;9.38;;;2.10;;
28447;SDS011;15675;52.870;-1.416;2022-11-15T08:05:58;5.78;;;2.17;;
28447;SDS011;15675;52.870;-1.416;2022-11-15T08:08:24;7.05;;;2.10;;
28447;SDS011;15675;52.870;-1.416;2022-11-15T08:10:49;8.93;;;1.95;;
28447;SDS011;15675;52.870;-1.416;2022-11-15T08:13:16;8.80;;;1.92;;
28447;SDS011;15675;52.870;-1.416;2022-11-15T08:15:41;3.20;;;1.70;;
28447;SDS011;15675;52.870;-1.416;2022-11-15T08:18:10;3.80;;;1.95;;
28447;SDS011;15675;52.870;-1.416;2022-11-15T08:20:38;4.57;;;1.75;;
28447;SDS011;15675;52.870;-1.416;2022-11-15T08:23:04;6.80;;;2.10;;
28447;SDS011;15675;52.870;-1.416;2022-11-15T08:25:30;7.22;;;2.30;;
28447;SDS011;15675;52.870;-1.416;2022-11-15T08:27:58;5.68;;;2.05;;
28447;SDS011;15675;52.870;-1.416;2022-11-15T08:30:26;7.10;;;1.88;;
28447;SDS011;15675;52.870;-1.416;2022-11-15T08:32:52;5.43;;;2.15;;
28447;SDS011;15675;52.870;-1.416;2022-11-15T08:35:19;7.18;;;2.22;;
28447;SDS011;15675;52.870;-1.416;2022-11-15T08:37:46;4.88;;;1.95;;
28447;SDS011;15675;52.870;-1.416;2022-11-15T08:40:12;6.13;;;1.77;;
28447;SDS011;15675;52.870;-1.416;2022-11-15T08:42:39;9.25;;;2.40;;
28447;SDS011;15675;52.870;-1.416;2022-11-15T08:45:06;6.35;;;2.10;;
28447;SDS011;15675;52.870;-1.416;2022-11-15T08:47:33;4.60;;;1.80;;
28447;SDS011;15675;52.870;-1.416;2022-11-15T08:49:59;5.70;;;2.95;;
28447;SDS011;15675;52.870;-1.416;2022-11-15T08:52:26;5.85;;;2.40;;
28447;SDS011;15675;52.870;-1.416;2022-11-15T08:55:05;6.15;;;2.22;;
28447;SDS011;15675;52.870;-1.416;2022-11-15T08:57:31;9.35;;;3.30;;
28447;SDS011;15675;52.870;-1.416;2022-11-15T08:59:57;5.40;;;1.92;;
28447;SDS011;15675;52.870;-1.416;2022-11-15T09:02:23;11.05;;;2.22;;
28447;SDS011;15675;52.870;-1.416;2022-11-15T09:04:49;8.65;;;2.25;;
28447;SDS011;15675;52.870;-1.416;2022-11-15T09:07:14;3.30;;;1.60;;
28447;SDS011;15675;52.870;-1.416;2022-11-15T09:09:40;4.47;;;2.17;;
28447;SDS011;15675;52.870;-1.416;2022-11-15T09:12:07;5.30;;;1.92;;
28447;SDS011;15675;52.870;-1.416;2022-11-15T09:14:33;5.97;;;2.00;;
28447;SDS011;15675;52.870;-1.416;2022-11-15T09:17:00;4.20;;;2.03;;
28447;SDS011;15675;52.870;-1.416;2022-11-15T09:19:26;4.85;;;2.10;;
28447;SDS011;15675;52.870;-1.416;2022-11-15T09:21:52;4.93;;;1.88;;
28447;SDS011;15675;52.870;-1.416;2022-11-15T09:24:18;11.38;;;1.88;;
28447;SDS011;15675;52.870;-1.416;2022-11-15T09:26:44;6.25;;;1.48;;
28447;SDS011;15675;52.870;-1.416;2022-11-15T09:29:10;5.60;;;1.92;;
28447;SDS011;15675;52.870;-1.416;2022-11-15T09:31:35;3.85;;;1.52;;
28447;SDS011;15675;52.870;-1.416;2022-11-15T09:34:02;6.18;;;1.67;;
28447;SDS011;15675;52.870;-1.416;2022-11-15T09:36:27;15.80;;;2.33;;
28447;SDS011;15675;52.870;-1.416;2022-11-15T09:38:53;5.95;;;1.77;;
28447;SDS011;15675;52.870;-1.416;2022-11-15T09:41:26;4.07;;;1.13;;
28447;SDS011;15675;52.870;-1.416;2022-11-15T09:46:55;3.97;;;1.58;;
28447;SDS011;15675;52.870;-1.416;2022-11-15T09:49:26;8.63;;;1.52;;
28447;SDS011;15675;52.870;-1.416;2022-11-15T09:51:54;4.60;;;1.30;;
28447;SDS011;15675;52.870;-1.416;2022-11-15T10:05:16;4.15;;;1.27;;
28447;SDS011;15675;52.870;-1.416;2022-11-15T10:07:48;4.28;;;1.17;;
28447;SDS011;15675;52.870;-1.416;2022-11-15T10:12:50;3.83;;;1.20;;
28447;SDS011;15675;52.870;-1.416;2022-11-15T10:15:18;3.70;;;1.05;;
28447;SDS011;15675;52.870;-1.416;2022-11-15T10:18:19;2.53;;;1.10;;
28447;SDS011;15675;52.870;-1.416;2022-11-15T10:23:15;2.80;;;1.05;;
28447;SDS011;15675;52.870;-1.416;2022-11-15T10:25:44;1.67;;;0.90;;
28447;SDS011;15675;52.870;-1.416;2022-11-15T10:28:21;2.08;;;0.88;;
28447;SDS011;15675;52.870;-1.416;2022-11-15T10:30:52;1.50;;;0.90;;
28447;SDS011;15675;52.870;-1.416;2022-11-15T10:35:48;1.52;;;0.60;;
28447;SDS011;15675;52.870;-1.416;2022-11-15T10:38:14;1.88;;;0.80;;
28447;SDS011;15675;52.870;-1.416;2022-11-15T10:40:40;1.45;;;0.70;;
28447;SDS011;15675;52.870;-1.416;2022-11-15T10:45:35;3.30;;;2.45;;
28447;SDS011;15675;52.870;-1.416;2022-11-15T10:48:21;2.47;;;1.48;;
28447;SDS011;15675;52.870;-1.416;2022-11-15T10:50:48;6.53;;;1.20;;
28447;SDS011;15675;52.870;-1.416;2022-11-15T10:56:08;1.48;;;0.80;;
28447;SDS011;15675;52.870;-1.416;2022-11-15T10:58:43;1.45;;;0.60;;
28447;SDS011;15675;52.870;-1.416;2022-11-15T11:01:17;2.92;;;0.55;;
28447;SDS011;15675;52.870;-1.416;2022-11-15T11:03:45;1.63;;;0.55;;
28447;SDS011;15675;52.870;-1.416;2022-11-15T11:06:24;1.83;;;0.57;;
28447;SDS011;15675;52.870;-1.416;2022-11-15T11:11:21;4.70;;;1.00;;
28447;SDS011;15675;52.870;-1.416;2022-11-15T11:13:47;1.10;;;0.60;;
28447;SDS011;15675;52.870;-1.416;2022-11-15T11:21:08;1.33;;;0.75;;
28447;SDS011;15675;52.870;-1.416;2022-11-15T11:28:48;2.95;;;0.70;;
28447;SDS011;15675;52.870;-1.416;2022-11-15T11:31:55;1.23;;;0.50;;
28447;SDS011;15675;52.870;-1.416;2022-11-15T11:48:11;2.50;;;0.60;;
28447;SDS011;15675;52.870;-1.416;2022-11-15T11:48:41;2.63;;;0.60;;
28447;SDS011;15675;52.870;-1.416;2022-11-15T11:51:15;0.80;;;0.50;;
28447;SDS011;15675;52.870;-1.416;2022-11-15T11:53:50;1.88;;;0.50;;
28447;SDS011;15675;52.870;-1.416;2022-11-15T11:56:25;3.70;;;0.65;;
28447;SDS011;15675;52.870;-1.416;2022-11-15T11:58:54;1.10;;;0.57;;
28447;SDS011;15675;52.870;-1.416;2022-11-15T12:01:28;1.20;;;0.50;;
28447;SDS011;15675;52.870;-1.416;2022-11-15T12:04:01;1.00;;;0.50;;
28447;SDS011;15675;52.870;-1.416;2022-11-15T12:17:28;2.58;;;0.73;;
28447;SDS011;15675;52.870;-1.416;2022-11-15T12:20:00;3.42;;;0.68;;
28447;SDS011;15675;52.870;-1.416;2022-11-15T12:22:46;1.08;;;0.50;;
28447;SDS011;15675;52.870;-1.416;2022-11-15T12:26:06;0.68;;;0.40;;
28447;SDS011;15675;52.870;-1.416;2022-11-15T12:28:55;1.63;;;0.50;;
28447;SDS011;15675;52.870;-1.416;2022-11-15T12:33:50;2.45;;;0.63;;
28447;SDS011;15675;52.870;-1.416;2022-11-15T12:39:18;2.70;;;0.68;;
28447;SDS011;15675;52.870;-1.416;2022-11-15T12:41:36;5.10;;;1.33;;
28447;SDS011;15675;52.870;-1.416;2022-11-15T12:44:04;1.92;;;0.75;;
28447;SDS011;15675;52.870;-1.416;2022-11-15T13:00:36;3.47;;;0.90;;
28447;SDS011;15675;52.870;-1.416;2022-11-15T13:02:26;4.05;;;1.00;;
28447;SDS011;15675;52.870;-1.416;2022-11-15T13:17:38;1.92;;;0.75;;
28447;SDS011;15675;52.870;-1.416;2022-11-15T13:25:52;1.00;;;0.60;;
28447;SDS011;15675;52.870;-1.416;2022-11-15T13:33:15;3.13;;;0.80;;
28447;SDS011;15675;52.870;-1.416;2022-11-15T13:36:02;1.58;;;0.57;;
28447;SDS011;15675;52.870;-1.416;2022-11-15T13:38:37;1.00;;;0.60;;
28447;SDS011;15675;52.870;-1.416;2022-11-15T13:41:20;2.78;;;0.75;;
28447;SDS011;15675;52.870;-1.416;2022-11-15T13:43:50;1.00;;;0.45;;
28447;SDS011;15675;52.870;-1.416;2022-11-15T13:48:45;1.20;;;0.47;;
28447;SDS011;15675;52.870;-1.416;2022-11-15T13:51:15;2.88;;;0.50;;
28447;SDS011;15675;52.870;-1.416;2022-11-15T13:54:34;1.10;;;0.50;;
28447;SDS011;15675;52.870;-1.416;2022-11-15T13:56:52;1.83;;;0.50;;
28447;SDS011;15675;52.870;-1.416;2022-11-15T13:59:30;2.08;;;0.73;;
28447;SDS011;15675;52.870;-1.416;2022-11-15T14:02:03;1.60;;;0.70;;
28447;SDS011;15675;52.870;-1.416;2022-11-15T14:04:38;0.77;;;0.50;;
28447;SDS011;15675;52.870;-1.416;2022-11-15T14:07:15;1.10;;;0.50;;
28447;SDS011;15675;52.870;-1.416;2022-11-15T14:09:44;2.25;;;0.50;;
28447;SDS011;15675;52.870;-1.416;2022-11-15T14:12:49;4.43;;;0.80;;
28447;SDS011;15675;52.870;-1.416;2022-11-15T14:14:59;1.20;;;0.50;;
28447;SDS011;15675;52.870;-1.416;2022-11-15T14:19:54;1.27;;;0.77;;
28447;SDS011;15675;52.870;-1.416;2022-11-15T14:22:21;4.57;;;0.63;;
28447;SDS011;15675;52.870;-1.416;2022-11-15T14:25:54;4.38;;;1.50;;
28447;SDS011;15675;52.870;-1.416;2022-11-15T14:27:39;2.97;;;0.73;;
28447;SDS011;15675;52.870;-1.416;2022-11-15T14:30:07;3.28;;;1.00;;
28447;SDS011;15675;52.870;-1.416;2022-11-15T14:32:42;2.38;;;1.17;;
28447;SDS011;15675;52.870;-1.416;2022-11-15T14:35:09;1.60;;;0.90;;
28447;SDS011;15675;52.870;-1.416;2022-11-15T14:37:39;1.80;;;0.90;;
28447;SDS011;15675;52.870;-1.416;2022-11-15T14:40:05;1.35;;;0.50;;
28447;SDS011;15675;52.870;-1.416;2022-11-15T14:42:34;1.88;;;0.75;;
28447;SDS011;15675;52.870;-1.416;2022-11-15T14:45:00;0.95;;;0.65;;
28447;SDS011;15675;52.870;-1.416;2022-11-15T14:47:26;3.28;;;0.85;;
28447;SDS011;15675;52.870;-1.416;2022-11-15T14:49:52;3.63;;;1.23;;
28447;SDS011;15675;52.870;-1.416;2022-11-15T14:54:53;2.90;;;1.10;;
28447;SDS011;15675;52.870;-1.416;2022-11-15T14:57:20;4.50;;;1.00;;
28447;SDS011;15675;52.870;-1.416;2022-11-15T14:59:46;4.78;;;1.27;;
28447;SDS011;15675;52.870;-1.416;2022-11-15T15:02:16;1.60;;;1.00;;
28447;SDS011;15675;52.870;-1.416;2022-11-15T15:04:48;2.58;;;1.20;;
28447;SDS011;15675;52.870;-1.416;2022-11-15T15:07:15;3.15;;;1.10;;
28447;SDS011;15675;52.870;-1.416;2022-11-15T15:09:42;5.07;;;1.15;;
28447;SDS011;15675;52.870;-1.416;2022-11-15T15:12:12;2.15;;;0.90;;
28447;SDS011;15675;52.870;-1.416;2022-11-15T15:14:43;7.53;;;1.42;;
28447;SDS011;15675;52.870;-1.416;2022-11-15T15:17:09;3.55;;;1.55;;
28447;SDS011;15675;52.870;-1.416;2022-11-15T15:19:36;2.80;;;1.15;;
28447;SDS011;15675;52.870;-1.416;2022-11-15T15:22:01;5.25;;;1.52;;
28447;SDS011;15675;52.870;-1.416;2022-11-15T15:24:27;2.35;;;1.20;;
28447;SDS011;15675;52.870;-1.416;2022-11-15T15:26:53;3.83;;;1.10;;
28447;SDS011;15675;52.870;-1.416;2022-11-15T15:29:19;4.72;;;1.20;;
28447;SDS011;15675;52.870;-1.416;2022-11-15T15:31:45;2.70;;;1.10;;
28447;SDS011;15675;52.870;-1.416;2022-11-15T15:34:10;4.32;;;1.10;;
28447;SDS011;15675;52.870;-1.416;2022-11-15T15:36:36;3.97;;;1.13;;
28447;SDS011;15675;52.870;-1.416;2022-11-15T15:39:02;5.75;;;1.38;;
28447;SDS011;15675;52.870;-1.416;2022-11-15T15:41:28;4.40;;;1.30;;
28447;SDS011;15675;52.870;-1.416;2022-11-15T15:43:54;5.63;;;1.48;;
28447;SDS011;15675;52.870;-1.416;2022-11-15T15:46:20;2.72;;;1.08;;
28447;SDS011;15675;52.870;-1.416;2022-11-15T15:48:46;6.45;;;1.55;;
28447;SDS011;15675;52.870;-1.416;2022-11-15T15:51:12;6.63;;;1.70;;
28447;SDS011;15675;52.870;-1.416;2022-11-15T15:53:38;5.03;;;2.72;;
28447;SDS011;15675;52.870;-1.416;2022-11-15T15:56:04;8.60;;;2.20;;
28447;SDS011;15675;52.870;-1.416;2022-11-15T15:58:33;7.97;;;1.55;;
28447;SDS011;15675;52.870;-1.416;2022-11-15T16:00:59;5.88;;;1.70;;
28447;SDS011;15675;52.870;-1.416;2022-11-15T16:03:25;7.28;;;3.08;;
28447;SDS011;15675;52.870;-1.416;2022-11-15T16:05:53;13.32;;;4.63;;
28447;SDS011;15675;52.870;-1.416;2022-11-15T16:08:20;16.25;;;4.75;;
28447;SDS011;15675;52.870;-1.416;2022-11-15T16:10:47;12.55;;;4.55;;
28447;SDS011;15675;52.870;-1.416;2022-11-15T16:13:14;17.67;;;5.75;;
28447;SDS011;15675;52.870;-1.416;2022-11-15T16:15:40;11.43;;;4.90;;
28447;SDS011;15675;52.870;-1.416;2022-11-15T16:18:08;11.45;;;4.82;;
28447;SDS011;15675;52.870;-1.416;2022-11-15T16:20:41;10.30;;;3.10;;
28447;SDS011;15675;52.870;-1.416;2022-11-15T16:23:10;5.50;;;1.85;;
28447;SDS011;15675;52.870;-1.416;2022-11-15T16:25:44;6.93;;;2.28;;
28447;SDS011;15675;52.870;-1.416;2022-11-15T16:28:28;10.32;;;2.08;;
28447;SDS011;15675;52.870;-1.416;2022-11-15T16:31:10;10.70;;;2.28;;
28447;SDS011;15675;52.870;-1.416;2022-11-15T16:33:37;5.63;;;2.08;;
28447;SDS011;15675;52.870;-1.416;2022-11-15T16:36:05;8.98;;;2.15;;
28447;SDS011;15675;52.870;-1.416;2022-11-15T16:38:37;5.55;;;1.40;;
28447;SDS011;15675;52.870;-1.416;2022-11-15T16:41:04;7.78;;;2.05;;
28447;SDS011;15675;52.870;-1.416;2022-11-15T16:43:30;8.73;;;3.00;;
28447;SDS011;15675;52.870;-1.416;2022-11-15T16:45:55;10.63;;;3.00;;
28447;SDS011;15675;52.870;-1.416;2022-11-15T16:48:23;9.60;;;2.80;;
28447;SDS011;15675;52.870;-1.416;2022-11-15T16:50:55;14.43;;;2.88;;
28447;SDS011;15675;52.870;-1.416;2022-11-15T16:53:23;11.73;;;2.70;;
28447;SDS011;15675;52.870;-1.416;2022-11-15T16:55:49;4.88;;;2.70;;
28447;SDS011;15675;52.870;-1.416;2022-11-15T16:58:15;8.23;;;2.55;;
28447;SDS011;15675;52.870;-1.416;2022-11-15T17:00:41;8.52;;;2.10;;
28447;SDS011;15675;52.870;-1.416;2022-11-15T17:03:07;9.23;;;2.08;;
28447;SDS011;15675;52.870;-1.416;2022-11-15T17:05:33;12.02;;;2.47;;